createdAt,value
2022-09-14T00:00:18.768Z,100884.75
2022-09-14T00:05:13.490Z,100890.97
2022-09-14T00:10:07.690Z,100911.13
2022-09-14T00:15:01.131Z,100897.06
2022-09-14T00:19:54.269Z,100921.34
2022-09-14T00:24:48.811Z,100770.69
2022-09-14T00:29:41.976Z,100905.56
2022-09-14T00:34:35.927Z,100939.94
2022-09-14T00:39:29.305Z,100866.22
2022-09-14T00:45:02.404Z,100932.50
2022-09-14T00:49:55.825Z,100832.31
2022-09-14T00:54:50.897Z,100935.38
2022-09-14T00:59:45.351Z,100929.28
2022-09-14T01:04:39.975Z,100865.78
2022-09-14T01:09:38.286Z,100943.78
2022-09-14T01:14:44.063Z,100948.59
2022-09-14T01:20:04.179Z,100845.47
2022-09-14T01:25:12.962Z,100884.88
2022-09-14T01:30:13.797Z,100942.84
2022-09-14T01:35:16.148Z,100946.34
2022-09-14T01:40:16.601Z,100864.75
2022-09-14T01:45:16.749Z,100838.56
2022-09-14T01:50:13.577Z,100917.47
2022-09-14T01:55:11.614Z,100913.53
2022-09-14T02:00:08.797Z,100833.19
2022-09-14T02:05:09.334Z,100851.03
2022-09-14T02:10:04.525Z,100896.41
2022-09-14T02:14:57.754Z,100848.47
2022-09-14T02:19:55.964Z,100783.81
2022-09-14T02:24:51.716Z,100892.28
2022-09-14T02:29:45.309Z,100829.59
2022-09-14T02:34:47.430Z,100907.63
2022-09-14T02:39:48.209Z,100905.28
2022-09-14T02:44:50.158Z,100901.81
2022-09-14T02:49:49.925Z,100854.88
2022-09-14T02:54:47.664Z,100873.34
2022-09-14T02:59:42.211Z,100891.00
2022-09-14T03:04:35.327Z,100877.13
2022-09-14T03:09:28.537Z,100813.31
2022-09-14T03:14:21.703Z,100897.63
2022-09-14T03:19:16.515Z,100914.19
2022-09-14T03:24:09.804Z,100864.25
2022-09-14T03:29:02.953Z,100938.00
2022-09-14T03:33:57.064Z,100898.03
2022-09-14T03:38:53.146Z,100931.84
2022-09-14T03:43:47.145Z,100902.25
2022-09-14T03:48:40.918Z,100916.03
2022-09-14T03:53:34.763Z,100951.97
2022-09-14T03:58:33.982Z,100936.63
2022-09-14T04:03:27.306Z,100945.44
2022-09-14T04:08:22.870Z,100958.75
2022-09-14T04:13:16.195Z,100950.28
2022-09-14T04:18:16.389Z,100933.22
2022-09-14T04:23:12.558Z,100854.50
2022-09-14T04:28:22.394Z,100839.47
2022-09-14T04:33:17.101Z,100966.88
2022-09-14T04:38:10.245Z,100975.47
2022-09-14T04:43:03.373Z,100975.19
2022-09-14T04:47:56.494Z,100936.06
2022-09-14T04:52:51.000Z,100991.63
2022-09-14T04:57:44.216Z,100974.47
2022-09-14T05:02:41.894Z,100935.84
2022-09-14T05:07:35.105Z,100827.44
2022-09-14T05:12:31.269Z,100974.25
2022-09-14T05:17:24.416Z,100983.59
2022-09-14T05:22:17.555Z,100988.78
2022-09-14T05:27:13.802Z,100980.84
2022-09-14T05:32:17.448Z,100920.69
2022-09-14T05:37:13.096Z,100947.25
2022-09-14T05:42:06.447Z,100902.44
2022-09-14T05:46:59.647Z,100950.22
2022-09-14T05:51:54.298Z,100993.78
2022-09-14T05:56:47.342Z,100958.03
2022-09-14T06:01:40.714Z,101003.19
2022-09-14T06:06:35.124Z,101007.78
2022-09-14T06:11:32.815Z,101011.09
2022-09-14T06:16:28.008Z,100871.63
2022-09-14T06:21:22.374Z,100995.38
2022-09-14T06:26:16.146Z,101014.69
2022-09-14T06:31:13.541Z,100992.34
2022-09-14T06:36:11.541Z,100905.50
2022-09-14T06:41:06.512Z,100896.41
2022-09-14T06:46:03.868Z,101005.88
2022-09-14T06:50:58.935Z,101009.22
2022-09-14T06:55:52.887Z,101009.22
2022-09-14T07:00:46.096Z,100939.94
2022-09-14T07:05:39.262Z,100988.00
2022-09-14T07:10:36.105Z,101003.53
2022-09-14T07:15:34.729Z,101010.47
2022-09-14T07:20:28.027Z,100874.00
2022-09-14T07:25:21.255Z,100974.31
2022-09-14T07:30:17.330Z,100971.66
2022-09-14T07:35:11.038Z,100987.09
2022-09-14T07:40:04.298Z,100981.53
2022-09-14T07:44:58.276Z,101004.75
2022-09-14T07:49:55.487Z,100954.25
2022-09-14T07:54:48.733Z,100857.41
2022-09-14T07:59:41.989Z,100956.56
2022-09-14T08:04:37.824Z,100958.06
2022-09-14T08:09:32.504Z,100928.25
2022-09-14T08:14:26.415Z,100953.69
2022-09-14T08:19:20.484Z,100997.78
2022-09-14T08:24:16.100Z,100927.91
2022-09-14T08:29:14.702Z,100915.19
2022-09-14T08:34:11.467Z,100967.00
2022-09-14T08:39:04.948Z,100960.19
2022-09-14T08:44:03.291Z,100942.16
2022-09-14T08:48:58.341Z,100900.94
2022-09-14T08:53:53.606Z,100948.47
2022-09-14T08:59:09.039Z,100900.34
2022-09-14T09:04:24.661Z,100946.25
2022-09-14T09:09:29.319Z,100864.31
2022-09-14T09:14:39.571Z,100942.69
2022-09-14T09:19:39.072Z,100837.09
2022-09-14T09:24:38.329Z,100853.84
2022-09-14T09:29:31.635Z,100948.84
2022-09-14T09:34:44.195Z,100842.47
2022-09-14T09:40:01.690Z,100840.63
2022-09-14T09:45:01.774Z,100936.16
2022-09-14T09:50:02.211Z,100833.97
2022-09-14T09:54:57.878Z,100836.00
2022-09-14T09:59:53.964Z,100850.75
2022-09-14T10:05:00.576Z,100920.22
2022-09-14T10:10:01.904Z,100921.09
2022-09-14T10:15:14.499Z,100883.09
2022-09-14T10:20:23.597Z,100855.41
2022-09-14T10:25:29.439Z,100923.13
2022-09-14T10:30:27.310Z,100876.63
2022-09-14T10:35:33.778Z,100798.13
2022-09-14T10:40:37.286Z,100898.91
2022-09-14T10:45:36.352Z,100827.97
2022-09-14T10:50:42.328Z,100861.47
2022-09-14T10:55:46.053Z,100805.78
2022-09-14T11:00:49.774Z,100869.03
2022-09-14T11:05:52.081Z,100867.31
2022-09-14T11:11:00.877Z,100855.47
2022-09-14T11:16:03.143Z,100826.69
2022-09-14T11:21:09.059Z,100728.13
2022-09-14T11:26:10.522Z,100744.38
2022-09-14T11:31:08.744Z,100736.56
2022-09-14T11:36:10.447Z,100751.00
2022-09-14T11:41:14.613Z,100780.69
2022-09-14T11:46:11.705Z,100778.84
2022-09-14T11:51:11.065Z,100709.19
2022-09-14T11:56:16.926Z,100717.00
2022-09-14T12:01:29.370Z,100698.69
2022-09-14T12:06:54.197Z,100781.72
2022-09-14T12:11:49.512Z,100773.53
2022-09-14T12:17:28.641Z,100779.72
2022-09-14T12:22:33.034Z,100772.56
2022-09-14T12:27:27.676Z,100714.78
2022-09-14T12:32:42.272Z,100770.00
2022-09-14T12:37:43.467Z,100667.63
2022-09-14T12:42:36.763Z,100749.53
2022-09-14T12:47:59.743Z,100640.06
2022-09-14T12:53:20.744Z,100757.41
2022-09-14T12:58:34.162Z,100706.69
2022-09-14T13:03:51.671Z,100675.50
2022-09-14T13:08:54.340Z,100680.91
2022-09-14T13:13:51.751Z,100683.13
2022-09-14T13:18:44.917Z,100718.31
2022-09-14T13:23:40.555Z,100689.41
2022-09-14T13:28:35.556Z,100708.00
2022-09-14T13:33:34.932Z,100698.97
2022-09-14T13:38:31.305Z,100765.56
2022-09-14T13:43:26.490Z,100760.75
2022-09-14T13:48:24.271Z,100671.47
2022-09-14T13:53:45.706Z,100767.16
2022-09-14T13:58:38.854Z,100739.06
2022-09-14T14:03:38.789Z,100715.38
2022-09-14T14:08:36.648Z,100669.22
2022-09-14T14:13:32.823Z,100732.94
2022-09-14T14:18:41.680Z,100680.91
2022-09-14T14:23:35.167Z,100713.69
2022-09-14T14:28:32.251Z,100727.72
2022-09-14T14:33:25.794Z,100744.47
2022-09-14T14:38:20.291Z,100744.06
2022-09-14T14:43:19.186Z,100655.44
2022-09-14T14:48:13.200Z,100738.09
2022-09-14T14:53:14.001Z,100717.56
2022-09-14T14:58:21.433Z,100722.25
2022-09-14T15:03:17.372Z,100679.19
2022-09-14T15:08:11.754Z,100679.13
2022-09-14T15:13:12.945Z,100704.53
2022-09-14T15:18:07.607Z,100635.38
2022-09-14T15:23:01.044Z,100726.28
2022-09-14T15:27:54.294Z,100727.75
2022-09-14T15:32:47.672Z,100714.34
2022-09-14T15:37:51.151Z,100620.56
2022-09-14T15:42:49.240Z,100660.03
2022-09-14T15:47:43.928Z,100658.97
2022-09-14T15:52:45.321Z,100648.84
2022-09-14T15:57:40.659Z,100548.03
2022-09-14T16:02:34.995Z,100517.94
2022-09-14T16:07:30.471Z,100678.19
2022-09-14T16:12:23.645Z,100675.75
2022-09-14T16:17:18.771Z,100642.91
2022-09-14T16:22:12.047Z,100599.34
2022-09-14T16:27:21.650Z,100673.25
2022-09-14T16:32:30.443Z,100567.66
2022-09-14T16:43:01.988Z,100495.28
2022-09-14T16:48:10.464Z,100562.22
2022-09-14T16:53:09.232Z,100645.97
2022-09-14T16:58:06.587Z,100622.53
2022-09-14T17:03:01.154Z,100540.28
2022-09-14T17:07:57.214Z,100651.91
2022-09-14T17:12:50.549Z,100599.72
2022-09-14T17:18:01.337Z,100597.44
2022-09-14T17:22:58.691Z,100669.38
2022-09-14T17:27:52.029Z,100590.00
2022-09-14T17:32:45.287Z,100547.41
2022-09-14T17:37:41.619Z,100540.81
2022-09-14T17:42:49.327Z,100535.44
2022-09-14T17:47:44.639Z,100594.03
2022-09-14T17:52:37.998Z,100543.09
2022-09-14T17:57:34.247Z,100669.72
2022-09-14T18:02:32.101Z,100597.59
2022-09-14T18:07:25.437Z,100634.34
2022-09-14T18:12:21.559Z,100654.03
2022-09-14T18:17:14.964Z,100639.66
2022-09-14T18:22:10.889Z,100517.56
2022-09-14T18:27:04.326Z,100639.41
2022-09-14T18:31:59.514Z,100597.66
2022-09-14T18:36:52.956Z,100621.47
2022-09-14T18:41:53.876Z,100629.47
2022-09-14T18:46:47.931Z,100589.13
2022-09-14T18:51:46.877Z,100608.59
2022-09-14T18:56:41.219Z,100542.59
2022-09-14T19:01:37.158Z,100569.44
2022-09-14T19:06:34.057Z,100557.81
2022-09-14T19:11:32.005Z,100639.84
2022-09-14T19:16:25.675Z,100643.69
2022-09-14T19:21:23.811Z,100641.34
2022-09-14T19:26:21.186Z,100640.78
2022-09-14T19:31:20.885Z,100644.34
2022-09-14T19:36:16.298Z,100656.91
2022-09-14T19:41:11.049Z,100611.97
2022-09-14T19:46:06.262Z,100606.34
2022-09-14T19:51:04.799Z,100593.78
2022-09-14T19:55:58.393Z,100659.72
2022-09-14T20:00:55.799Z,100667.69
2022-09-14T20:05:48.967Z,100629.25
2022-09-14T20:10:42.236Z,100645.75
2022-09-14T20:15:38.517Z,100629.00
2022-09-14T20:20:33.131Z,100638.13
2022-09-14T20:25:32.773Z,100584.38
2022-09-14T20:30:37.221Z,100496.91
2022-09-14T20:35:34.029Z,100620.47
2022-09-14T20:40:27.272Z,100633.84
2022-09-14T20:45:23.524Z,100601.72
2022-09-14T20:50:16.826Z,100621.09
2022-09-14T20:55:11.714Z,100615.34
2022-09-14T21:00:05.497Z,100629.28
2022-09-14T21:05:00.117Z,100562.09
2022-09-14T21:09:53.369Z,100632.56
2022-09-14T21:14:48.177Z,100534.63
2022-09-14T21:19:44.348Z,100579.56
2022-09-14T21:24:37.545Z,100477.00
2022-09-14T21:29:33.171Z,100578.97
2022-09-14T21:34:27.626Z,100577.59
2022-09-14T21:39:26.024Z,100576.94
2022-09-14T21:44:46.621Z,100443.41
2022-09-14T21:49:41.130Z,100553.16
2022-09-14T21:54:41.871Z,100558.09
2022-09-14T21:59:40.529Z,100518.84
2022-09-14T22:04:33.664Z,100417.31
2022-09-14T22:09:29.708Z,100535.25
2022-09-14T22:14:26.446Z,100563.47
2022-09-14T22:19:21.426Z,100562.38
2022-09-14T22:24:17.454Z,100515.69
2022-09-14T22:29:12.991Z,100553.69
2022-09-14T22:34:06.436Z,100494.53
2022-09-14T22:39:01.323Z,100503.81
2022-09-14T22:43:55.244Z,100563.91
2022-09-14T22:48:50.607Z,100534.69
2022-09-14T22:53:44.305Z,100570.81
2022-09-14T22:58:38.062Z,100566.63
2022-09-14T23:03:31.123Z,100560.41
2022-09-14T23:08:25.633Z,100545.91
2022-09-14T23:13:21.748Z,100532.28
2022-09-14T23:18:15.243Z,100542.03
2022-09-14T23:23:09.017Z,100545.19
2022-09-14T23:28:04.063Z,100511.50
2022-09-14T23:32:57.191Z,100521.75
2022-09-14T23:37:50.357Z,100520.72
2022-09-14T23:42:43.433Z,100542.00
2022-09-14T23:47:37.935Z,100539.66
2022-09-14T23:52:31.272Z,100538.16
2022-09-14T23:57:24.439Z,100541.13
